Latest Weather Observations for Horsham

IDV60801

Issued at 9:22 pm EST Thursday 20 June 2019 (issued every 10 minutes, with the page automatically refreshed every 10 minutes)

About weather observations | Map of weather stations | Latest weather observations for VIC | Other Formats
Station Details ID: 079100 Name: HORSHAM AERODROME Lat: -36.67 Lon: 142.17 Height: 133.8 m
Data from the previous 72 hours. | See also: Recent months at Horsham
Date/Time
EST
Temp
°C
App
Temp
°C
Dew
Point
°C
Rel
Hum
%
Delta-T
°C
Wind Press
QNH
hPa
Press
MSL
hPa
Rain since
9am
mm
Dir  Spd
km/h
Gust
km/h
Spd
kts
Gust
kts
20/09:00pm 5.2 2.0 0.6 72 1.8 S 7 9 4 5 1027.9 1028.2 0.0
20/08:30pm 5.5 1.6 0.9 72 1.8 SSW 11 13 6 7 1027.8 1028.1 0.0
20/08:00pm 5.7 1.4 0.7 70 2.0 SSW 13 15 7 8 1027.6 1027.9 0.0
20/07:30pm 5.8 1.8 0.8 70 2.0 SW 11 13 6 7 1027.5 1027.8 0.0
20/07:00pm 6.2 2.3 0.9 69 2.1 SW 11 13 6 7 1027.1 1027.4 0.0
20/06:30pm 6.3 2.3 0.8 68 2.2 SSW 11 13 6 7 1026.7 1027.0 0.0
20/06:00pm 7.4 3.9 1.0 64 2.6 SSW 9 11 5 6 1026.4 1026.7 0.0
20/05:30pm 8.3 4.8 1.2 61 2.9 SW 9 11 5 6 1026.2 1026.5 0.0
20/05:00pm 10.1 5.8 1.2 54 3.7 SW 13 17 7 9 1025.9 1026.2 0.0
20/04:30pm 11.1 6.8 1.1 50 4.2 SW 13 19 7 10 1025.7 1026.0 0.0
20/04:00pm 11.3 6.1 0.1 46 4.6 SSW 17 22 9 12 1025.6 1025.9 0.0
20/03:30pm 11.5 6.4 0.6 47 4.5 SSW 17 20 9 11 1025.5 1025.8 0.0
20/03:00pm 11.3 6.8 -0.5 44 4.8 WSW 13 17 7 9 1025.6 1025.9 0.0
20/02:30pm 11.6 7.2 0.1 45 4.7 WSW 13 22 7 12 1025.5 1025.8 0.0
20/02:00pm 11.0 6.0 1.3 51 4.1 SW 17 20 9 11 1025.7 1026.0 0.0
20/01:30pm 11.2 7.0 1.5 51 4.1 SW 13 19 7 10 1025.9 1026.2 0.0
20/01:00pm 10.8 6.6 1.6 53 3.9 SW 13 20 7 11 1026.2 1026.5 0.0
20/12:30pm 11.2 7.3 3.3 58 3.5 SW 13 20 7 11 1026.5 1026.8 0.0
20/12:00pm 10.6 7.1 3.6 62 3.1 SSW 11 19 6 10 1026.8 1027.1 0.0
20/11:30am 10.2 7.3 4.4 67 2.6 SSW 9 13 5 7 1027.2 1027.5 0.0
20/11:00am 9.4 7.0 5.2 75 1.9 SSW 7 9 4 5 1027.4 1027.7 0.0
20/10:30am 8.6 6.5 5.7 82 1.3 S 6 9 3 5 1027.4 1027.7 0.0
20/10:00am 7.5 5.4 5.8 89 0.8 S 6 7 3 4 1027.3 1027.6 0.0
20/09:30am 6.9 4.8 6.0 94 0.4 S 6 7 3 4 1027.3 1027.6 0.0
20/09:00am 5.6 3.3 4.9 95 0.3 SSW 6 7 3 4 1027.1 1027.4 0.2
20/08:30am 4.7 2.2 4.0 95 0.3 SSW 6 7 3 4 1027.0 1027.3 0.2
20/08:00am 4.3 1.5 3.4 94 0.4 SSW 7 7 4 4 1026.9 1027.2 0.2
20/07:30am 5.1 2.1 4.1 93 0.4 SW 9 13 5 7 1026.6 1026.9 0.2
20/07:00am 5.4 3.8 4.4 93 0.4 SSW 2 7 1 4 1026.4 1026.7 0.2
20/06:30am 5.5 3.9 4.3 92 0.5 SSW 2 6 1 3 1026.2 1026.5 0.2
20/06:00am 5.5 3.1 4.3 92 0.5 SSW 6 7 3 4 1026.2 1026.5 0.2
20/05:30am 5.7 3.1 4.3 91 0.6 SSW 7 7 4 4 1026.0 1026.3 0.2
20/05:00am 5.5 4.2 4.2 91 0.6 CALM 0 0 0 0 1026.0 1026.3 0.2
20/04:30am 5.6 4.3 4.2 91 0.6 CALM 0 0 0 0 1025.9 1026.2 0.2
20/04:00am 5.5 4.2 4.2 91 0.6 CALM 0 0 0 0 1026.0 1026.3 0.2
20/03:30am 5.7 3.7 4.2 90 0.6 WNW 4 7 2 4 1026.2 1026.5 0.2
20/03:00am 6.0 3.4 4.3 89 0.7 SSW 7 9 4 5 1026.3 1026.6 0.2
20/02:30am 5.9 3.9 4.2 89 0.7 SSW 4 6 2 3 1026.4 1026.7 0.2
20/02:00am 6.2 4.9 4.2 87 0.9 CALM 0 0 0 0 1026.3 1026.6 0.2
20/01:30am 6.6 5.4 4.4 86 1.0 CALM 0 0 0 0 1026.2 1026.5 0.2
20/01:00am 6.5 4.1 4.5 87 0.9 NNW 6 9 3 5 1026.3 1026.6 0.2
20/12:30am 6.6 5.4 4.4 86 1.0 CALM 0 0 0 0 1026.5 1026.8 0.2
20/12:00am 6.5 3.6 4.7 88 0.8 S 9 11 5 6 1026.5 1026.8 0.2
 
Date/Time
EST
Temp
°C
App
Temp
°C
Dew
Point
°C
Rel
Hum
%
Delta-T
°C
Wind Press
QNH
hPa
Press
MSL
hPa
Rain since
9am
mm
Dir  Spd
km/h
Gust
km/h
Spd
kts
Gust
kts
19/11:30pm 6.2 3.8 4.5 89 0.7 NNE 6 7 3 4 1026.7 1027.0 0.2
19/11:00pm 6.0 3.6 4.5 90 0.6 SE 6 7 3 4 1026.8 1027.1 0.2
19/10:30pm 6.2 2.9 4.5 89 0.7 SSW 11 15 6 8 1026.8 1027.1 0.2
19/10:00pm 6.2 3.6 4.0 86 0.9 SW 7 11 4 6 1026.8 1027.1 0.0
19/09:30pm 6.7 4.1 4.0 83 1.2 WNW 7 7 4 4 1026.8 1027.1 0.0
19/09:00pm 7.0 4.5 3.8 80 1.4 WNW 6 7 3 4 1026.9 1027.2 0.0
19/08:30pm 6.8 4.4 4.1 83 1.2 W 6 7 3 4 1026.8 1027.1 0.0
19/08:00pm 6.4 5.1 4.2 86 0.9 CALM 0 0 0 0 1026.9 1027.2 0.0
19/07:30pm 6.8 4.3 3.9 82 1.2 ENE 6 6 3 3 1026.8 1027.1 0.0
19/07:00pm 6.7 4.1 4.0 83 1.2 E 7 7 4 4 1026.7 1027.0 0.0
19/06:30pm 6.3 3.2 3.8 84 1.1 ESE 9 9 5 5 1026.7 1027.0 0.0
19/06:00pm 6.2 3.4 3.2 81 1.3 SE 7 9 4 5 1026.6 1026.9 0.0
19/05:30pm 8.8 6.2 3.4 69 2.3 SW 6 7 3 4 1026.5 1026.8 0.0
19/05:00pm 9.3 6.7 4.3 71 2.2 S 7 7 4 4 1026.4 1026.7 0.0
19/04:30pm 10.1 7.5 4.0 66 2.7 S 7 7 4 4 1026.4 1026.7 0.0
19/04:00pm 10.5 7.4 3.8 63 3.0 SSW 9 11 5 6 1026.4 1026.7 0.0
19/03:30pm 10.7 7.5 3.0 59 3.4 SSW 9 13 5 7 1026.3 1026.6 0.0
19/03:00pm 10.9 8.2 3.5 60 3.3 S 7 11 4 6 1026.3 1026.6 0.0
19/02:30pm 10.5 7.3 3.1 60 3.2 SW 9 15 5 8 1026.4 1026.7 0.0
19/02:00pm 10.3 6.8 3.3 62 3.0 SSW 11 13 6 7 1026.7 1027.0 0.0
19/01:30pm 10.9 7.5 3.9 62 3.1 SW 11 20 6 11 1026.9 1027.2 0.0
19/01:00pm 10.4 6.6 3.9 64 2.9 SW 13 17 7 9 1027.3 1027.6 0.0
19/12:30pm 9.9 6.6 4.7 70 2.3 SSW 11 15 6 8 1027.6 1027.9 0.0
19/12:00pm 9.2 6.4 5.0 75 1.9 WSW 9 13 5 7 1028.0 1028.3 0.0
19/11:30am 8.8 6.4 7.1 89 0.8 WSW 9 13 5 7 1028.3 1028.6 0.0
19/11:00am 7.1 4.6 6.5 96 0.3 WSW 9 11 5 6 1028.4 1028.7 0.0
19/10:30am 5.6 3.2 5.3 98 0.1 SW 7 11 4 6 1028.4 1028.7 0.0
19/10:00am 4.6 1.7 4.5 99 0.0 SW 9 15 5 8 1028.2 1028.5 0.0
19/09:30am 3.5 0.7 3.4 99 0.0 SSW 7 9 4 5 1027.7 1028.0 0.0
19/09:00am 2.1 -1.3 1.8 98 0.1 SSW 9 11 5 6 1027.5 1027.8 0.0
19/08:30am 1.5 -3.2 1.2 98 0.1 WSW 15 17 8 9 1027.3 1027.6 0.0
19/08:16am 0.9 -3.8 0.6 98 0.1 WSW 15 19 8 10 1027.0 1027.3 0.0
19/08:00am 0.4 -4.0 0.1 98 0.1 WSW 13 17 7 9 1026.8 1027.1 0.0
19/07:39am -0.5 -4.7 -0.8 98 0.1 SSW 11 13 6 7 1026.6 1026.9 0.0
19/07:30am 0.9 -3.5 0.6 98 0.1 SW 13 13 7 7 1026.7 1027.0 0.0
19/07:00am 0.1 -3.6 -0.2 98 0.1 WSW 9 11 5 6 1026.5 1026.8 0.0
19/06:46am -0.6 -4.4 -1.0 97 0.1 WSW 9 9 5 5 1026.3 1026.6 0.0
19/06:30am 0.1 -3.6 -0.3 97 0.1 SSW 9 9 5 5 1026.1 1026.4 0.0
19/06:00am 0.7 -2.6 0.3 97 0.1 SSW 7 9 4 5 1025.9 1026.2 0.0
19/05:30am 0.3 -3.8 -0.1 97 0.1 SSW 11 11 6 6 1025.6 1025.9 0.0
19/05:00am -0.2 -3.4 -0.8 96 0.2 SW 6 7 3 4 1025.8 1026.1 0.0
19/04:57am 0.5 -2.6 -0.1 96 0.2 SW 6 7 3 4 1025.8 1026.1 0.0
19/04:30am 1.9 -1.6 1.3 96 0.2 SW 9 13 5 7 1025.6 1025.9 0.0
19/04:00am 2.2 -1.6 1.6 96 0.2 SW 11 13 6 7 1025.6 1025.9 0.0
19/03:30am 1.9 -2.0 1.3 96 0.2 WSW 11 13 6 7 1025.8 1026.1 0.0
19/03:00am 1.9 -1.6 1.3 96 0.2 WSW 9 9 5 5 1025.7 1026.0 0.0
19/02:30am 0.1 -3.7 -0.7 94 0.3 W 9 9 5 5 1025.7 1026.0 0.0
19/02:00am 2.0 -1.5 1.1 94 0.3 WSW 9 13 5 7 1025.4 1025.7 0.0
19/01:30am 2.4 -0.7 1.5 94 0.3 WSW 7 9 4 5 1025.3 1025.6 0.0
19/01:00am 1.9 -1.1 0.9 93 0.4 SW 6 7 3 4 1025.3 1025.6 0.0
19/12:30am 2.0 -1.2 0.8 92 0.5 SW 7 9 4 5 1025.3 1025.6 0.0
19/12:00am 2.6 -0.5 1.4 92 0.5 SW 7 9 4 5 1025.4 1025.7 0.0
 
Date/Time
EST
Temp
°C
App
Temp
°C
Dew
Point
°C
Rel
Hum
%
Delta-T
°C
Wind Press
QNH
hPa
Press
MSL
hPa
Rain since
9am
mm
Dir  Spd
km/h
Gust
km/h
Spd
kts
Gust
kts
18/11:30pm 1.2 -2.9 -0.4 89 0.6 S 11 13 6 7 1025.3 1025.6 0.0
18/11:00pm 3.3 -0.9 1.5 88 0.7 SW 13 15 7 8 1025.1 1025.4 0.0
18/10:30pm 3.5 -0.3 1.5 87 0.8 W 11 13 6 7 1025.0 1025.3 0.0
18/10:00pm 4.2 0.1 2.2 87 0.8 WSW 13 17 7 9 1024.9 1025.1 0.0
18/09:30pm 4.0 0.3 2.2 88 0.7 W 11 13 6 7 1024.9 1025.1 0.0
18/09:00pm 4.3 1.0 2.3 87 0.8 WSW 9 11 5 6 1024.7 1024.9 0.0
18/08:30pm 4.6 0.5 2.5 86 0.9 WSW 13 15 7 8 1024.4 1024.6 0.0
18/08:00pm 4.8 1.1 2.3 84 1.0 WSW 11 13 6 7 1024.2 1024.4 0.0
18/07:30pm 5.8 1.8 2.8 81 1.2 SW 13 15 7 8 1023.9 1024.1 0.0
18/07:00pm 5.5 0.8 3.0 84 1.0 SSW 17 20 9 11 1023.5 1023.7 0.0
18/06:30pm 6.6 2.3 3.0 78 1.5 SW 15 17 8 9 1023.2 1023.4 0.0
18/06:00pm 8.0 3.8 4.0 76 1.7 WSW 15 20 8 11 1023.0 1023.2 0.0
18/05:30pm 7.9 4.0 3.6 74 1.9 W 13 15 7 8 1022.8 1023.0 0.0
18/05:00pm 8.8 4.6 3.6 70 2.3 WSW 15 17 8 9 1022.5 1022.7 0.0
18/04:30pm 9.1 5.0 4.1 71 2.2 SW 15 17 8 9 1022.3 1022.5 0.0
18/04:00pm 9.4 4.4 4.4 71 2.2 SSW 20 26 11 14 1022.1 1022.3 0.0
18/03:30pm 11.1 4.2 4.6 64 3.0 SSW 30 37 16 20 1021.6 1021.8 0.0
18/03:00pm 10.5 5.2 4.9 68 2.5 SW 22 33 12 18 1021.4 1021.6 0.0
18/02:30pm 10.6 3.7 4.5 66 2.8 SSW 30 39 16 21 1021.0 1021.3 0.0
18/02:00pm 11.7 6.1 5.3 65 3.0 SSW 24 35 13 19 1021.0 1021.3 0.0
18/01:30pm 11.4 5.0 5.1 65 2.9 SW 28 39 15 21 1020.9 1021.2 0.0
18/01:00pm 11.3 5.1 6.0 70 2.5 SSW 28 37 15 20 1021.0 1021.3 0.0
18/12:30pm 9.6 3.6 6.9 83 1.3 SSW 28 43 15 23 1021.2 1021.5 0.0
18/12:00pm 10.4 3.7 5.4 71 2.3 SW 30 43 16 23 1021.0 1021.3 0.0
18/11:30am 10.1 3.9 6.1 76 1.9 SW 28 39 15 21 1021.0 1021.3 0.0
18/11:00am 9.9 4.3 7.0 82 1.4 SW 26 35 14 19 1020.9 1021.2 0.0
18/10:30am 9.7 4.1 7.1 84 1.2 WSW 26 32 14 17 1020.8 1021.1 0.0
18/10:29am 9.7 4.1 7.1 84 1.2 WSW 26 33 14 18 1020.8 1021.1 0.0
18/10:17am 9.7 4.9 7.3 85 1.1 WSW 22 30 12 16 1020.6 1020.9 0.0
18/10:04am 9.3 4.5 7.4 88 0.9 WSW 22 30 12 16 1020.4 1020.7 0.0
18/10:00am 9.4 5.1 7.7 89 0.8 WSW 20 30 11 16 1020.3 1020.6 0.0
18/09:30am 9.0 4.7 7.9 93 0.5 WSW 20 28 11 15 1019.8 1020.1 0.0
18/09:25am 8.9 4.8 8.0 94 0.4 W 19 24 10 13 1019.6 1019.9 0.0
18/09:00am 8.3 4.9 7.7 96 0.3 W 15 19 8 10 1019.3 1019.6 1.8
18/08:30am 7.7 4.6 7.3 97 0.2 W 13 13 7 7 1018.9 1019.2 1.8
18/08:02am 7.3 3.7 6.9 97 0.2 WNW 15 19 8 10 1018.4 1018.6 1.8
18/08:00am 7.3 3.7 6.9 97 0.2 WNW 15 17 8 9 1018.4 1018.6 1.8
18/07:49am 7.3 3.7 6.9 97 0.2 WNW 15 17 8 9 1018.3 1018.5 1.8
18/07:30am 7.3 3.7 6.9 97 0.2 WNW 15 15 8 8 1018.2 1018.4 1.8
18/07:24am 7.1 3.5 6.7 97 0.2 WNW 15 15 8 8 1018.1 1018.3 1.8
18/07:03am 7.9 4.9 7.5 97 0.2 WNW 13 17 7 9 1017.7 1017.9 1.8
18/07:00am 8.0 5.0 7.6 97 0.2 WNW 13 17 7 9 1017.7 1017.9 1.8
18/06:51am 8.2 4.8 7.8 97 0.2 WNW 15 20 8 11 1017.5 1017.7 1.8
18/06:30am 8.8 4.8 8.4 97 0.2 W 19 24 10 13 1017.4 1017.6 1.8
18/06:00am 8.6 5.0 8.2 97 0.2 WNW 17 20 9 11 1017.0 1017.2 1.8
18/05:43am 8.4 4.7 8.0 97 0.2 NW 17 20 9 11 1016.9 1017.1 1.8
18/05:30am 8.3 4.2 7.9 97 0.2 NW 19 20 10 11 1016.7 1016.9 1.8
18/05:14am 8.3 4.2 7.7 96 0.3 NW 19 24 10 13 1016.4 1016.6 1.8
18/05:00am 8.3 3.6 7.7 96 0.3 NW 22 28 12 15 1016.5 1016.7 1.6
18/04:55am 8.2 3.1 7.6 96 0.3 NW 24 32 13 17 1016.6 1016.8 1.4
18/04:50am 8.2 3.1 7.6 96 0.3 NW 24 32 13 17 1016.6 1016.8 1.4
18/04:45am 8.2 3.0 7.4 95 0.4 NW 24 32 13 17 1016.6 1016.8 1.4
18/04:30am 8.2 3.0 7.3 94 0.4 NW 24 32 13 17 1016.6 1016.8 1.0
18/04:24am 8.1 2.8 7.0 93 0.5 NW 24 28 13 15 1016.6 1016.8 0.8
18/04:02am 8.0 3.6 6.5 90 0.7 NNW 19 20 10 11 1016.8 1017.0 0.2
18/04:00am 8.0 3.6 6.5 90 0.7 NNW 19 20 10 11 1016.7 1016.9 0.2
18/03:30am 7.9 3.4 6.0 88 0.9 N 19 24 10 13 1016.7 1016.9 0.0
18/03:00am 7.8 3.7 6.1 89 0.8 N 17 20 9 11 1016.7 1016.9 0.0
18/02:30am 7.7 3.6 6.0 89 0.8 N 17 20 9 11 1016.8 1017.0 0.0
18/02:00am 8.4 4.3 6.2 86 1.0 N 17 20 9 11 1016.9 1017.1 0.0
18/01:30am 8.3 4.2 6.4 88 0.9 N 17 20 9 11 1017.0 1017.2 0.0
18/01:00am 8.3 4.2 6.4 88 0.9 N 17 20 9 11 1017.4 1017.6 0.0
18/12:30am 8.5 4.5 6.6 88 0.9 N 17 20 9 11 1017.6 1017.8 0.0
18/12:00am 8.8 4.5 6.8 87 0.9 N 19 20 10 11 1018.0 1018.2 0.0
 
Date/Time
EST
Temp
°C
App
Temp
°C
Dew
Point
°C
Rel
Hum
%
Delta-T
°C
Wind Press
QNH
hPa
Press
MSL
hPa
Rain since
9am
mm
Dir  Spd
km/h
Gust
km/h
Spd
kts
Gust
kts
17/11:30pm 9.1 5.2 7.1 87 0.9 N 17 20 9 11 1018.1 1018.3 0.0
17/11:00pm 9.2 5.7 7.2 87 0.9 N 15 19 8 10 1018.2 1018.4 0.0
17/10:30pm 9.4 5.5 7.2 86 1.0 N 17 20 9 11 1018.2 1018.4 0.0
17/10:00pm 9.5 5.0 7.1 85 1.1 N 20 24 11 13 1018.2 1018.4 0.0
17/09:30pm 9.3 5.4 7.3 87 1.0 N 17 20 9 11 1018.5 1018.7 0.0

Other formats

Comma delimited format used in spreadsheet applications
http://www.bom.gov.au/fwo/IDV60801/IDV60801.95839.axf

JavaScript Object Notation format (JSON) in row-major order
http://www.bom.gov.au/fwo/IDV60801/IDV60801.95839.json

Data quality

Most of these data are generated automatically and are frequently updated. Quality checks on data are not normally performed. It is possible for incorrect values to appear. Refer to information at About Latest Weather Observations and please check the disclaimer before using these data.